Time;durP1;ratioP1;P1;durP2;ratioP2;P2;SDS_P1;SDS_P2;PMS_P1;PMS_P2;Temp;Humidity;BMP_temperature;BMP_pressure;BME280_temperature;BME280_humidity;BME280_pressure;Samples;Min_cycle;Max_cycle;Signal;HPM_P1;HPM_P2
2023/04/24 00:02:10;;;;;;;;;;;;;;;12.96;63.23;91884.16;2058369;69;20136;-80
2023/04/24 00:04:40;;;;;;;;;;;;;;;13.03;62.65;91885.84;2055167;69;20145;-81
2023/04/24 00:07:06;;;;;;;;;;;;;;;13.03;62.80;91890.78;2058221;69;20057;-79
2023/04/24 00:09:32;;;;;;;;;;;;;;;12.94;62.57;91889.72;2058222;69;20074;-81
2023/04/24 00:11:57;;;;;;;;;;;;;;;12.68;64.02;91892.22;2058133;69;20046;-80
2023/04/24 00:14:23;;;;;;;;;;;;;;;12.75;62.98;91896.03;2058261;69;20054;-80
2023/04/24 00:16:48;;;;;;;;;;;;;;;12.72;62.87;91907.25;2055021;69;20208;-80
2023/04/24 00:19:14;;;;;;;;;;;;;;;12.66;63.22;91907.00;2058306;69;20120;-79
2023/04/24 00:21:40;;;;;;;;;;;;;;;12.48;64.40;91903.44;2058124;69;20089;-79
2023/04/24 00:24:08;;;;;;;;;;;;;;;12.51;64.82;91901.41;2054795;69;20086;-81
2023/04/24 00:26:35;;;;;;;;;;;;;;;12.60;65.02;91908.84;2057952;69;20088;-80
2023/04/24 00:29:01;;;;;;;;;;;;;;;12.41;66.04;91905.28;2055019;69;20089;-80
2023/04/24 00:31:27;;;;;;;;;;;;;;;12.36;64.40;91906.47;2055330;69;20096;-80
2023/04/24 00:33:52;;;;;;;;;;;;;;;12.11;65.06;91912.47;2058534;69;20050;-79
2023/04/24 00:36:20;;;;;;;;;;;;;;;12.16;65.62;91902.81;2055076;69;20116;-80
2023/04/24 00:38:46;;;;;;;;;;;;;;;12.29;65.74;91909.72;2057661;69;20061;-80
2023/04/24 00:41:11;;;;;;;;;;;;;;;12.51;65.52;91915.53;2051993;69;20070;-79
2023/04/24 00:43:37;;;;;;;;;;;;;;;12.39;65.59;91901.66;2057409;69;20082;-76
2023/04/24 00:46:03;;;;;;;;;;;;;;;12.24;65.95;91910.91;2058128;70;20049;-79
2023/04/24 00:48:29;;;;;;;;;;;;;;;12.37;65.02;91907.94;2056990;70;20050;-75
2023/04/24 00:50:55;;;;;;;;;;;;;;;12.24;66.61;91905.25;2055730;70;20125;-78
2023/04/24 00:53:21;;;;;;;;;;;;;;;12.22;67.02;91903.06;2055517;70;20058;-81
2023/04/24 00:55:51;;;;;;;;;;;;;;;12.21;67.02;91904.44;2055385;70;20050;-81
2023/04/24 00:58:18;;;;;;;;;;;;;;;12.16;66.31;91897.91;2056052;70;20133;-77
2023/04/24 01:00:44;;;;;;;;;;;;;;;12.20;66.06;91900.16;2058053;70;20129;-78
2023/04/24 01:03:10;;;;;;;;;;;;;;;11.16;68.63;91896.34;2055853;69;20047;-82
2023/04/24 01:05:36;;;;;;;;;;;;;;;11.76;66.92;91893.31;2055056;70;20065;-81
2023/04/24 01:08:02;;;;;;;;;;;;;;;12.02;66.04;91899.41;2051642;70;20070;-79
2023/04/24 01:10:29;;;;;;;;;;;;;;;11.94;66.49;91891.31;2051575;70;20159;-81
2023/04/24 01:12:55;;;;;;;;;;;;;;;11.95;66.57;91890.66;2054686;70;20062;-80
2023/04/24 01:15:21;;;;;;;;;;;;;;;11.86;67.41;91882.50;2051338;70;20200;-81
2023/04/24 01:17:46;;;;;;;;;;;;;;;11.92;66.59;91882.78;2055201;70;20058;-83
2023/04/24 01:20:14;;;;;;;;;;;;;;;11.98;65.66;91885.84;2051595;70;20508;-81
2023/04/24 01:22:41;;;;;;;;;;;;;;;12.09;65.37;91890.53;2054439;70;20403;-81
2023/04/24 01:25:09;;;;;;;;;;;;;;;12.15;64.35;91892.91;2051466;70;20082;-81
2023/04/24 01:27:35;;;;;;;;;;;;;;;12.16;64.34;91902.81;2051243;70;20062;-80
2023/04/24 01:30:01;;;;;;;;;;;;;;;11.58;64.24;91898.88;2054760;70;20113;-81
2023/04/24 01:32:29;;;;;;;;;;;;;;;11.90;64.63;91903.13;2048767;70;20051;-81
2023/04/24 01:34:55;;;;;;;;;;;;;;;11.78;64.75;91905.44;2051344;70;20120;-81
2023/04/24 01:37:21;;;;;;;;;;;;;;;11.67;65.32;91906.34;2051225;70;20051;-81
2023/04/24 01:43:15;;;;;;;;;;;;;;;11.81;66.17;91918.22;2056209;69;20571;-80
2023/04/24 01:49:16;;;;;;;;;;;;;;;11.57;67.92;91931.25;2050585;69;20141;-82
2023/04/24 01:51:43;;;;;;;;;;;;;;;11.70;67.12;91921.97;2054728;69;20109;-80
2023/04/24 01:54:09;;;;;;;;;;;;;;;11.70;67.09;91919.88;2057806;69;20058;-81
2023/04/24 01:56:35;;;;;;;;;;;;;;;11.67;67.45;91921.16;2057965;69;20120;-80
2023/04/24 01:59:02;;;;;;;;;;;;;;;11.80;66.91;91916.78;2051977;69;20062;-81
2023/04/24 02:01:32;;;;;;;;;;;;;;;11.86;66.35;91908.59;2057783;69;20450;-81
2023/04/24 02:03:58;;;;;;;;;;;;;;;11.67;67.45;91923.97;2054954;69;20054;-81
2023/04/24 02:06:23;;;;;;;;;;;;;;;11.65;67.79;91904.16;2057700;69;20065;-78
2023/04/24 02:08:51;;;;;;;;;;;;;;;11.65;68.08;91909.06;2054577;69;20050;-82
2023/04/24 02:11:18;;;;;;;;;;;;;;;11.67;67.24;91892.97;2058065;69;20070;-79
2023/04/24 02:13:46;;;;;;;;;;;;;;;11.68;67.15;91896.50;2058083;69;20160;-82
2023/04/24 02:16:11;;;;;;;;;;;;;;;11.69;67.03;91893.06;2054523;69;20572;-79
2023/04/24 02:18:37;;;;;;;;;;;;;;;11.68;67.14;91896.50;2058001;69;20065;-78
2023/04/24 02:21:02;;;;;;;;;;;;;;;11.66;67.34;91894.34;2057822;69;20058;-80
2023/04/24 02:23:31;;;;;;;;;;;;;;;11.70;66.36;91888.16;2058505;69;20050;-81
2023/04/24 02:25:56;;;;;;;;;;;;;;;11.64;66.73;91885.06;2058337;69;20137;-78
2023/04/24 02:28:23;;;;;;;;;;;;;;;11.53;67.82;91878.25;2058413;69;20056;-82
2023/04/24 02:34:18;;;;;;;;;;;;;;;11.42;67.79;91885.53;2058371;69;20057;-82
2023/04/24 02:40:12;;;;;;;;;;;;;;;11.53;66.66;91885.97;2058644;69;20179;-81
2023/04/24 02:42:37;;;;;;;;;;;;;;;11.55;66.14;91872.00;2054473;70;20557;-78
2023/04/24 02:45:03;;;;;;;;;;;;;;;11.50;67.03;91873.16;2055320;70;20483;-78
2023/04/24 02:50:57;;;;;;;;;;;;;;;11.44;66.71;91874.34;2061264;69;20046;-81
2023/04/24 02:53:23;;;;;;;;;;;;;;;11.38;67.23;91870.53;2055276;70;20062;-80
2023/04/24 02:55:48;;;;;;;;;;;;;;;11.32;66.97;91876.63;2051781;70;20140;-80
2023/04/24 02:58:14;;;;;;;;;;;;;;;11.19;68.92;91878.16;2051379;70;20061;-81
2023/04/24 03:00:40;;;;;;;;;;;;;;;11.19;68.47;91874.63;2051661;70;20088;-79
2023/04/24 03:03:06;;;;;;;;;;;;;;;11.29;67.57;91872.25;2051671;70;20046;-81
2023/04/24 03:05:32;;;;;;;;;;;;;;;11.37;66.81;91871.91;2051819;70;20078;-80
2023/04/24 03:07:57;;;;;;;;;;;;;;;11.18;69.04;91867.53;2055066;70;20090;-75
2023/04/24 03:10:23;;;;;;;;;;;;;;;11.24;68.44;91867.09;2055155;70;20052;-81
2023/04/24 03:16:17;;;;;;;;;;;;;;;11.16;69.04;91862.53;2053796;70;20116;-80
2023/04/24 03:18:43;;;;;;;;;;;;;;;11.06;69.16;91873.34;2055118;69;20058;-81
2023/04/24 03:21:08;;;;;;;;;;;;;;;11.01;69.67;91860.44;2051754;70;20502;-80
2023/04/24 03:23:35;;;;;;;;;;;;;;;11.14;69.43;91864.53;2051442;70;20486;-80
2023/04/24 03:26:02;;;;;;;;;;;;;;;11.20;68.61;91864.81;2054437;70;20141;-81
2023/04/24 03:28:27;;;;;;;;;;;;;;;11.05;69.23;91874.72;2051634;70;20042;-81
2023/04/24 03:34:27;;;;;;;;;;;;;;;11.09;69.44;91874.19;2055234;70;20172;-81
2023/04/24 03:36:55;;;;;;;;;;;;;;;11.11;69.24;91877.78;2051630;70;20065;-81
2023/04/24 03:39:21;;;;;;;;;;;;;;;11.10;69.67;91876.34;2051560;70;20046;-81
2023/04/24 03:41:52;;;;;;;;;;;;;;;11.08;69.34;91881.88;2054387;70;20051;-81
2023/04/24 03:44:22;;;;;;;;;;;;;;;11.09;69.94;91886.16;2047216;70;20533;-80
2023/04/24 03:46:47;;;;;;;;;;;;;;;11.06;70.02;91884.59;2054955;70;20050;-79
2023/04/24 03:49:13;;;;;;;;;;;;;;;11.01;70.46;91887.88;2046137;70;20089;-81
2023/04/24 03:51:42;;;;;;;;;;;;;;;10.98;70.37;91887.06;2038342;70;20133;-81
2023/04/24 03:54:15;;;;;;;;;;;;;;;11.07;69.79;91886.06;2038871;69;20058;-81
2023/04/24 03:56:41;;;;;;;;;;;;;;;11.09;70.31;91885.44;2038800;69;20145;-81
2023/04/24 03:59:08;;;;;;;;;;;;;;;10.92;70.87;91898.03;2038704;69;20086;-82
2023/04/24 04:05:03;;;;;;;;;;;;;;;11.05;70.44;91890.88;2058179;69;20052;-79
2023/04/24 04:07:29;;;;;;;;;;;;;;;11.06;70.08;91889.53;2038968;69;20062;-80
2023/04/24 04:09:55;;;;;;;;;;;;;;;11.00;70.79;91889.25;2038929;69;20100;-77
2023/04/24 04:12:22;;;;;;;;;;;;;;;10.92;71.07;91892.41;2038945;69;20112;-81
2023/04/24 04:14:47;;;;;;;;;;;;;;;11.08;70.29;91892.41;2038651;69;20043;-76
2023/04/24 04:17:13;;;;;;;;;;;;;;;11.06;69.97;91890.25;2035759;70;20122;-76
2023/04/24 04:19:38;;;;;;;;;;;;;;;11.09;69.95;91902.34;2035726;70;20181;-78
2023/04/24 04:22:04;;;;;;;;;;;;;;;11.05;70.24;91896.53;2035719;70;20052;-80
2023/04/24 04:24:50;;;;;;;;;;;;;;;11.12;70.16;91901.78;2038886;70;20044;-78
2023/04/24 04:27:21;;;;;;;;;;;;;;;11.05;70.58;91897.25;2035654;70;20151;-80
2023/04/24 04:30:04;;;;;;;;;;;;;;;11.10;70.38;91904.50;2035783;69;20051;-78
2023/04/24 04:32:35;;;;;;;;;;;;;;;11.11;70.18;91911.59;2035937;70;20141;-76
2023/04/24 04:35:02;;;;;;;;;;;;;;;11.00;70.25;91906.16;2037871;70;20199;-76
2023/04/24 04:37:31;;;;;;;;;;;;;;;11.01;70.13;91919.59;2037158;70;20148;-81
2023/04/24 04:40:17;;;;;;;;;;;;;;;10.93;69.80;91911.47;2035870;70;20063;-81
2023/04/24 04:42:53;;;;;;;;;;;;;;;10.92;69.87;91904.41;2042295;69;20084;-80
2023/04/24 04:45:20;;;;;;;;;;;;;;;10.90;69.76;91909.94;2054994;69;20177;-81
2023/04/24 04:48:07;;;;;;;;;;;;;;;10.99;69.00;91913.84;2058251;69;20054;-81
2023/04/24 04:50:33;;;;;;;;;;;;;;;10.92;68.66;91912.13;2055020;69;20078;-82
2023/04/24 04:53:05;;;;;;;;;;;;;;;11.00;68.04;91911.78;2054925;69;20426;-82
2023/04/24 04:55:33;;;;;;;;;;;;;;;10.96;67.43;91920.75;2054904;69;20078;-81
2023/04/24 04:58:06;;;;;;;;;;;;;;;10.87;68.47;91918.94;2054823;69;20141;-81
2023/04/24 05:00:35;;;;;;;;;;;;;;;10.82;69.24;91923.63;2054803;69;20169;-81
2023/04/24 05:03:03;;;;;;;;;;;;;;;10.91;68.17;91927.56;2051823;69;20082;-81
2023/04/24 05:08:57;;;;;;;;;;;;;;;10.80;68.76;91934.06;2058286;69;20069;-79
2023/04/24 05:11:45;;;;;;;;;;;;;;;10.68;69.76;91943.41;2054389;69;20449;-80
2023/04/24 05:14:12;;;;;;;;;;;;;;;10.67;69.74;91932.75;2054485;69;20486;-81
2023/04/24 05:16:40;;;;;;;;;;;;;;;10.80;69.46;91942.50;2054702;69;20062;-81
2023/04/24 05:22:35;;;;;;;;;;;;;;;10.74;69.15;91953.47;2058348;69;20116;-82
2023/04/24 05:25:02;;;;;;;;;;;;;;;10.64;70.07;91962.91;2052362;69;20042;-82
2023/04/24 05:30:56;;;;;;;;;;;;;;;10.74;69.36;91959.84;2058233;69;20085;-78
2023/04/24 05:33:24;;;;;;;;;;;;;;;10.71;69.45;91960.38;2056358;69;20050;-76
2023/04/24 05:35:49;;;;;;;;;;;;;;;10.74;69.94;91959.13;2057206;69;20111;-72
2023/04/24 05:38:17;;;;;;;;;;;;;;;10.68;69.78;91953.94;2058528;69;20057;-72
2023/04/24 05:44:11;;;;;;;;;;;;;;;10.78;69.64;91956.50;2057345;69;20045;-79
2023/04/24 05:46:37;;;;;;;;;;;;;;;10.77;70.62;91964.22;2054678;69;20046;-73
2023/04/24 05:49:02;;;;;;;;;;;;;;;10.90;69.58;91955.00;2054785;69;20066;-76
2023/04/24 05:54:58;;;;;;;;;;;;;;;10.82;70.74;91956.69;2057804;69;20053;-78
2023/04/24 05:57:30;;;;;;;;;;;;;;;10.90;70.80;91959.88;2054554;69;20053;-78
2023/04/24 06:00:02;;;;;;;;;;;;;;;11.09;69.48;91965.03;2057340;69;20089;-76
2023/04/24 06:02:32;;;;;;;;;;;;;;;11.07;69.91;91964.91;2057959;69;20589;-74
2023/04/24 06:04:59;;;;;;;;;;;;;;;11.17;68.82;91967.47;2054883;69;20054;-74
2023/04/24 06:07:26;;;;;;;;;;;;;;;11.10;69.47;91965.75;2054619;69;20136;-73
2023/04/24 06:09:52;;;;;;;;;;;;;;;11.12;69.41;91974.28;2057476;69;20160;-73
2023/04/24 06:12:17;;;;;;;;;;;;;;;11.10;70.58;91962.94;2058438;69;20149;-78
2023/04/24 06:14:58;;;;;;;;;;;;;;;11.27;69.86;91964.41;2054742;69;20053;-79
2023/04/24 06:17:47;;;;;;;;;;;;;;;11.28;70.36;91966.59;2056824;69;20086;-72
2023/04/24 06:20:14;;;;;;;;;;;;;;;11.24;69.74;91960.06;2055189;69;20078;-78
2023/04/24 06:22:40;;;;;;;;;;;;;;;11.28;70.25;91960.97;2054783;69;20171;-79
2023/04/24 06:25:05;;;;;;;;;;;;;;;11.47;69.61;91965.34;2055428;69;20042;-79
2023/04/24 06:27:31;;;;;;;;;;;;;;;11.56;69.26;91974.91;2058186;69;20046;-79
2023/04/24 06:29:56;;;;;;;;;;;;;;;11.61;68.23;91962.44;2054738;69;20426;-79
2023/04/24 06:32:24;;;;;;;;;;;;;;;11.51;67.74;91964.81;2057837;69;20101;-79
2023/04/24 06:34:51;;;;;;;;;;;;;;;11.41;67.19;91974.25;2054613;69;20060;-78
2023/04/24 06:37:16;;;;;;;;;;;;;;;11.75;67.14;91974.34;2058036;69;20479;-79
2023/04/24 06:39:42;;;;;;;;;;;;;;;11.69;67.48;91977.63;2058165;69;20052;-79
2023/04/24 06:42:09;;;;;;;;;;;;;;;11.65;67.23;91960.53;2058080;69;20081;-79
2023/04/24 06:44:40;;;;;;;;;;;;;;;11.73;66.61;91970.72;2054636;69;20134;-74
2023/04/24 06:47:07;;;;;;;;;;;;;;;10.90;69.53;91965.50;2057801;69;20116;-72
2023/04/24 06:49:32;;;;;;;;;;;;;;;11.32;67.74;91975.25;2057858;69;20395;-77
2023/04/24 06:51:57;;;;;;;;;;;;;;;11.60;67.25;91969.47;2057881;69;20070;-79
2023/04/24 06:54:23;;;;;;;;;;;;;;;11.83;65.83;91965.56;2057826;69;20139;-78
2023/04/24 06:56:50;;;;;;;;;;;;;;;11.82;65.60;91953.56;2057929;69;20058;-77
2023/04/24 06:59:15;;;;;;;;;;;;;;;11.84;65.42;91950.81;2050292;69;20054;-76
2023/04/24 07:01:40;;;;;;;;;;;;;;;11.30;65.89;91955.41;2057723;69;20038;-74
2023/04/24 07:04:06;;;;;;;;;;;;;;;11.66;65.83;91959.16;2057807;69;20050;-75
2023/04/24 07:06:32;;;;;;;;;;;;;;;11.39;65.30;91951.59;2058340;69;20148;-74
2023/04/24 07:08:59;;;;;;;;;;;;;;;12.03;64.33;91960.81;2058448;69;20053;-73
2023/04/24 07:11:29;;;;;;;;;;;;;;;12.40;63.21;91953.91;2058408;69;20042;-71
2023/04/24 07:13:55;;;;;;;;;;;;;;;12.53;63.22;91957.97;2058418;69;20046;-74
2023/04/24 07:16:20;;;;;;;;;;;;;;;12.54;61.73;91953.78;2058187;69;20046;-73
2023/04/24 07:18:45;;;;;;;;;;;;;;;12.58;60.97;91956.75;2058311;69;20046;-72
2023/04/24 07:21:11;;;;;;;;;;;;;;;12.86;60.96;91957.19;2058417;69;20081;-78
2023/04/24 07:23:36;;;;;;;;;;;;;;;12.99;62.34;91956.31;2058291;69;20093;-78
2023/04/24 07:26:02;;;;;;;;;;;;;;;12.90;61.18;91955.25;2058282;69;20069;-78
2023/04/24 07:28:30;;;;;;;;;;;;;;;12.96;62.20;91952.69;2058237;69;20462;-78
2023/04/24 07:30:56;;;;;;;;;;;;;;;13.22;61.18;91960.78;2058364;69;20144;-77
2023/04/24 07:33:22;;;;;;;;;;;;;;;13.29;60.47;91950.44;2058261;69;20169;-77
2023/04/24 07:35:48;;;;;;;;;;;;;;;13.33;60.21;91953.41;2058233;69;20058;-73
2023/04/24 07:38:13;;;;;;;;;;;;;;;13.16;60.21;91960.53;2058290;69;20112;-74
2023/04/24 07:40:39;;;;;;;;;;;;;;;13.36;60.77;91952.84;2058222;69;20046;-73
2023/04/24 07:43:04;;;;;;;;;;;;;;;13.48;60.81;91961.09;2058261;69;20052;-74
2023/04/24 07:45:31;;;;;;;;;;;;;;;13.54;58.81;91964.13;2058454;69;20470;-73
2023/04/24 07:47:56;;;;;;;;;;;;;;;13.19;58.09;91962.03;2058240;69;20462;-73
2023/04/24 07:50:22;;;;;;;;;;;;;;;13.37;59.44;91962.06;2058036;69;20050;-78
2023/04/24 07:52:47;;;;;;;;;;;;;;;13.45;58.82;91960.25;2058329;69;20159;-78
2023/04/24 07:55:13;;;;;;;;;;;;;;;13.25;58.83;91962.31;2058282;69;20073;-78
2023/04/24 07:57:38;;;;;;;;;;;;;;;12.97;58.55;91956.25;2058277;69;20049;-77
2023/04/24 08:00:05;;;;;;;;;;;;;;;12.68;59.54;91955.06;2058339;69;20122;-76
2023/04/24 08:02:36;;;;;;;;;;;;;;;12.72;58.69;91958.06;2055139;69;20426;-76
2023/04/24 08:05:03;;;;;;;;;;;;;;;12.69;58.58;91961.44;2054845;69;20046;-75
2023/04/24 08:10:56;;;;;;;;;;;;;;;12.50;60.87;91962.06;2058545;69;20045;-77
2023/04/24 08:13:22;;;;;;;;;;;;;;;13.03;58.64;91959.31;2055528;69;20101;-77
2023/04/24 08:15:47;;;;;;;;;;;;;;;13.40;58.03;91957.94;2058125;69;20058;-77
2023/04/24 08:18:15;;;;;;;;;;;;;;;13.34;59.16;91961.25;2057908;69;20141;-77
2023/04/24 08:20:41;;;;;;;;;;;;;;;13.29;58.49;91964.59;2058277;69;20050;-78
2023/04/24 08:23:06;;;;;;;;;;;;;;;13.43;59.55;91959.47;2058169;69;20053;-79
2023/04/24 08:25:32;;;;;;;;;;;;;;;13.77;57.60;91959.31;2058202;69;20046;-78
2023/04/24 08:27:57;;;;;;;;;;;;;;;13.50;56.90;91968.91;2058118;69;20049;-79
2023/04/24 08:30:23;;;;;;;;;;;;;;;13.23;57.25;91959.41;2058116;69;20073;-74
2023/04/24 08:32:48;;;;;;;;;;;;;;;12.09;60.42;91958.25;2058205;69;20058;-78
2023/04/24 08:35:14;;;;;;;;;;;;;;;12.77;58.18;91967.44;2058396;69;20057;-78
2023/04/24 08:37:39;;;;;;;;;;;;;;;12.10;60.76;91973.81;2058234;69;20138;-78
2023/04/24 08:40:15;;;;;;;;;;;;;;;12.63;61.10;91972.50;2058219;69;20174;-78
2023/04/24 08:42:44;;;;;;;;;;;;;;;13.07;58.87;91970.06;2058225;69;20045;-78
2023/04/24 08:45:13;;;;;;;;;;;;;;;13.30;57.48;91969.59;2058208;69;20061;-78
2023/04/24 08:47:39;;;;;;;;;;;;;;;13.20;56.87;91978.38;2057928;69;20200;-79
2023/04/24 08:50:05;;;;;;;;;;;;;;;13.50;55.64;91983.03;2058245;69;20046;-78
2023/04/24 08:52:34;;;;;;;;;;;;;;;13.84;55.69;91981.53;2054816;69;20487;-78
2023/04/24 08:55:00;;;;;;;;;;;;;;;13.91;55.35;91977.53;2058054;69;20101;-78
2023/04/24 08:57:25;;;;;;;;;;;;;;;13.13;56.74;91987.97;2058161;69;20426;-78
2023/04/24 08:59:52;;;;;;;;;;;;;;;13.00;56.87;91974.72;2058184;69;20545;-79
2023/04/24 09:02:19;;;;;;;;;;;;;;;13.59;57.03;91979.16;2057986;69;20054;-76
2023/04/24 09:04:45;;;;;;;;;;;;;;;14.27;54.39;91985.19;2058044;69;20053;-75
2023/04/24 09:07:12;;;;;;;;;;;;;;;14.53;55.16;91982.59;2058107;69;20089;-79
2023/04/24 09:09:38;;;;;;;;;;;;;;;15.03;54.32;91994.91;2038777;70;20144;-79
2023/04/24 09:12:04;;;;;;;;;;;;;;;15.11;53.80;91986.66;2038761;70;20511;-77
2023/04/24 09:14:31;;;;;;;;;;;;;;;15.17;53.53;91986.16;2038815;70;20048;-78
2023/04/24 09:16:57;;;;;;;;;;;;;;;15.18;53.55;91990.44;2038821;70;20079;-79
2023/04/24 09:19:22;;;;;;;;;;;;;;;15.38;54.33;91988.22;2038993;70;20171;-77
2023/04/24 09:21:48;;;;;;;;;;;;;;;13.78;52.29;91981.28;2051670;70;20054;-77
2023/04/24 09:24:20;;;;;;;;;;;;;;;14.81;51.83;91991.34;2051471;70;20183;-77
2023/04/24 09:26:45;;;;;;;;;;;;;;;14.46;54.08;91995.78;2038749;70;20059;-77
2023/04/24 09:29:20;;;;;;;;;;;;;;;14.65;51.73;91992.22;2038829;70;20044;-79
2023/04/24 09:31:45;;;;;;;;;;;;;;;13.78;56.17;91995.44;2058059;69;20053;-79
2023/04/24 09:34:11;;;;;;;;;;;;;;;13.95;55.36;92002.44;2058137;69;20046;-75
2023/04/24 09:36:37;;;;;;;;;;;;;;;13.54;54.42;92005.81;2038807;69;20055;-74
2023/04/24 09:39:05;;;;;;;;;;;;;;;14.20;54.58;92004.78;2038759;70;20098;-79
2023/04/24 09:41:31;;;;;;;;;;;;;;;13.28;57.93;92003.41;2038885;70;20091;-79
2023/04/24 09:43:57;;;;;;;;;;;;;;;14.26;54.26;92006.38;2038648;70;20504;-79
2023/04/24 09:46:30;;;;;;;;;;;;;;;14.45;52.32;91997.88;2038721;70;20163;-79
2023/04/24 09:48:55;;;;;;;;;;;;;;;15.13;51.23;91994.53;2038840;70;20056;-79
2023/04/24 09:51:33;;;;;;;;;;;;;;;13.48;53.30;91990.09;2051654;70;20052;-79
2023/04/24 09:53:58;;;;;;;;;;;;;;;13.66;55.60;91981.56;2038671;70;20063;-79
2023/04/24 09:56:25;;;;;;;;;;;;;;;13.99;53.68;91968.63;2051560;70;20048;-78
2023/04/24 09:58:51;;;;;;;;;;;;;;;14.22;53.94;91958.84;2038991;70;20048;-78
2023/04/24 10:01:28;;;;;;;;;;;;;;;14.47;53.68;91963.22;2040947;70;20059;-78
2023/04/24 10:03:54;;;;;;;;;;;;;;;13.73;54.91;91971.94;2061780;69;20046;-78
2023/04/24 10:06:19;;;;;;;;;;;;;;;15.33;50.81;91966.81;2062156;69;20562;-78
2023/04/24 10:08:46;;;;;;;;;;;;;;;14.45;52.51;91969.56;2059108;69;20057;-77
2023/04/24 10:11:13;;;;;;;;;;;;;;;14.63;53.34;91963.09;2058333;69;20496;-72
2023/04/24 10:17:07;;;;;;;;;;;;;;;16.74;48.56;91940.38;2058004;69;20053;-78
2023/04/24 10:19:33;;;;;;;;;;;;;;;17.26;47.27;91945.94;2054750;69;20117;-79
2023/04/24 10:21:59;;;;;;;;;;;;;;;17.56;45.95;91941.66;2058093;69;20068;-79
2023/04/24 10:24:25;;;;;;;;;;;;;;;17.77;46.89;91960.63;2058064;69;20046;-77
2023/04/24 10:26:50;;;;;;;;;;;;;;;17.72;46.91;91959.81;2057952;69;20422;-77
2023/04/24 10:29:17;;;;;;;;;;;;;;;17.26;44.93;91962.28;2057968;69;20066;-78
2023/04/24 10:31:45;;;;;;;;;;;;;;;17.57;44.49;91965.84;2038884;69;20090;-78
2023/04/24 10:34:11;;;;;;;;;;;;;;;18.04;44.36;91970.50;2038700;70;20090;-78
2023/04/24 10:36:39;;;;;;;;;;;;;;;19.16;41.33;91967.00;2038645;70;20087;-78
2023/04/24 10:39:08;;;;;;;;;;;;;;;19.02;41.58;91972.47;2038805;70;20056;-79
2023/04/24 10:41:36;;;;;;;;;;;;;;;17.94;43.90;91970.28;2039265;70;20084;-78
2023/04/24 10:44:06;;;;;;;;;;;;;;;19.13;40.02;91973.34;2039404;70;20052;-78
2023/04/24 10:50:08;;;;;;;;;;;;;;;19.11;40.21;91973.31;2058547;69;20425;-78
2023/04/24 10:52:53;;;;;;;;;;;;;;;19.41;40.31;91975.97;2058490;69;20076;-79
2023/04/24 10:55:45;;;;;;;;;;;;;;;18.15;40.85;91980.00;2050015;69;20057;-78
2023/04/24 10:58:11;;;;;;;;;;;;;;;16.17;45.42;91984.28;2057912;69;20383;-76
2023/04/24 11:00:38;;;;;;;;;;;;;;;15.68;45.26;91982.09;2058411;69;20061;-76
2023/04/24 11:03:08;;;;;;;;;;;;;;;15.93;45.97;91984.25;2058330;69;20074;-78
2023/04/24 11:05:55;;;;;;;;;;;;;;;15.53;46.71;91989.41;2055123;69;20070;-78
2023/04/24 11:08:23;;;;;;;;;;;;;;;16.59;46.24;91988.97;2058275;69;20478;-76
2023/04/24 11:10:55;;;;;;;;;;;;;;;17.52;44.29;91990.66;2058351;69;20046;-77
2023/04/24 11:13:28;;;;;;;;;;;;;;;17.71;43.88;91988.94;2058466;69;20459;-79
2023/04/24 11:16:12;;;;;;;;;;;;;;;19.14;43.15;91986.91;2058829;69;20081;-80
2023/04/24 11:18:39;;;;;;;;;;;;;;;20.53;38.60;91992.66;2058374;69;20601;-78
2023/04/24 11:21:16;;;;;;;;;;;;;;;18.08;39.94;91984.09;2058743;69;20201;-83
2023/04/24 11:23:42;;;;;;;;;;;;;;;20.49;37.49;91989.03;2058215;69;20145;-79
2023/04/24 11:26:18;;;;;;;;;;;;;;;21.67;33.33;91978.09;2058437;69;20153;-77
2023/04/24 11:28:51;;;;;;;;;;;;;;;21.23;33.07;91984.84;2055015;69;20081;-74
2023/04/24 11:31:36;;;;;;;;;;;;;;;22.56;29.79;91987.34;2049402;69;20069;-82
2023/04/24 11:34:12;;;;;;;;;;;;;;;22.47;30.07;91988.72;2058229;69;20080;-77
2023/04/24 11:36:39;;;;;;;;;;;;;;;23.01;27.28;91987.53;2055041;69;20090;-75
2023/04/24 11:39:05;;;;;;;;;;;;;;;24.61;26.60;91994.13;2058194;69;20054;-78
2023/04/24 11:41:31;;;;;;;;;;;;;;;21.79;27.74;91993.25;2058438;69;20092;-77
2023/04/24 11:43:57;;;;;;;;;;;;;;;21.28;29.90;91998.50;2058242;69;20057;-79
2023/04/24 11:46:22;;;;;;;;;;;;;;;19.30;31.56;91995.78;2058411;69;20200;-75
2023/04/24 11:48:47;;;;;;;;;;;;;;;22.21;27.77;91988.56;2058847;69;20100;-73
2023/04/24 11:51:13;;;;;;;;;;;;;;;21.02;29.71;91998.22;2058488;69;20502;-79
2023/04/24 11:53:39;;;;;;;;;;;;;;;21.86;29.32;91988.31;2058442;69;20057;-78
2023/04/24 11:56:04;;;;;;;;;;;;;;;22.61;28.19;91987.34;2058363;69;20060;-77
2023/04/24 11:58:37;;;;;;;;;;;;;;;22.10;28.50;91979.16;2058173;69;20490;-78
2023/04/24 12:01:03;;;;;;;;;;;;;;;20.33;29.66;91972.34;2058298;69;20069;-78
2023/04/24 12:03:28;;;;;;;;;;;;;;;23.64;27.27;91971.84;2058231;69;20489;-77
2023/04/24 12:06:04;;;;;;;;;;;;;;;27.39;24.14;91980.47;2058501;69;20050;-78
2023/04/24 12:08:32;;;;;;;;;;;;;;;28.26;21.96;91981.34;2058341;69;20050;-78
2023/04/24 12:10:59;;;;;;;;;;;;;;;27.13;22.63;91976.47;2058307;69;20053;-77
2023/04/24 12:13:25;;;;;;;;;;;;;;;29.60;21.39;91986.84;2057775;69;20074;-75
2023/04/24 12:15:51;;;;;;;;;;;;;;;28.70;20.84;91982.06;2054980;69;20518;-74
2023/04/24 12:18:19;;;;;;;;;;;;;;;26.28;23.67;91975.16;2054999;69;20141;-73
2023/04/24 12:20:44;;;;;;;;;;;;;;;29.67;20.84;91982.34;2055050;69;20050;-76
2023/04/24 12:23:10;;;;;;;;;;;;;;;29.43;21.18;91979.94;2039565;69;20052;-77
2023/04/24 12:25:36;;;;;;;;;;;;;;;30.73;19.78;91991.44;2058195;69;20054;-75
2023/04/24 12:28:04;;;;;;;;;;;;;;;32.89;18.40;91982.09;2058092;69;20130;-76
2023/04/24 12:30:51;;;;;;;;;;;;;;;33.82;16.96;91989.03;2058086;69;20427;-77
2023/04/24 12:33:20;;;;;;;;;;;;;;;35.56;16.97;91994.38;2058004;69;20434;-76
2023/04/24 12:35:45;;;;;;;;;;;;;;;35.27;17.32;91989.03;2054818;69;20050;-77
2023/04/24 12:38:14;;;;;;;;;;;;;;;33.53;15.80;91985.72;2058100;69;20375;-77
2023/04/24 12:40:41;;;;;;;;;;;;;;;32.31;16.98;91979.66;2058085;69;20096;-77
2023/04/24 12:43:14;;;;;;;;;;;;;;;26.72;20.82;91962.50;2057901;69;20042;-78
2023/04/24 12:45:39;;;;;;;;;;;;;;;25.54;22.31;91960.59;2057965;69;20054;-77
2023/04/24 12:48:05;;;;;;;;;;;;;;;22.31;23.86;91959.94;2057914;69;20054;-77
2023/04/24 12:50:30;;;;;;;;;;;;;;;26.45;19.56;91964.22;2057924;69;20418;-74
2023/04/24 12:52:56;;;;;;;;;;;;;;;23.80;21.01;91961.13;2058334;69;20112;-75
2023/04/24 12:55:21;;;;;;;;;;;;;;;22.00;22.45;91944.72;2058091;69;20162;-77
2023/04/24 12:57:46;;;;;;;;;;;;;;;29.53;18.01;91962.31;2058263;69;20149;-76
2023/04/24 13:00:12;;;;;;;;;;;;;;;24.14;20.95;91945.28;2058201;69;20050;-77
2023/04/24 13:02:38;;;;;;;;;;;;;;;31.37;15.80;91967.22;2058071;69;20050;-78
2023/04/24 13:05:03;;;;;;;;;;;;;;;26.16;20.36;91957.97;2058129;69;20076;-77
2023/04/24 13:07:29;;;;;;;;;;;;;;;24.80;21.81;91963.13;2057977;69;20085;-77
2023/04/24 13:09:55;;;;;;;;;;;;;;;20.79;24.51;91957.94;2058105;69;20050;-77
2023/04/24 13:12:21;;;;;;;;;;;;;;;20.74;25.63;91959.31;2058208;69;20484;-77
2023/04/24 13:14:46;;;;;;;;;;;;;;;27.04;21.84;91961.38;2057954;69;20128;-77
2023/04/24 13:17:12;;;;;;;;;;;;;;;27.14;20.83;91966.34;2057873;69;20153;-77
2023/04/24 13:19:40;;;;;;;;;;;;;;;22.97;22.63;91955.97;2058164;69;20121;-77
2023/04/24 13:22:05;;;;;;;;;;;;;;;21.73;23.69;91964.56;2054687;69;20066;-77
2023/04/24 13:24:31;;;;;;;;;;;;;;;18.46;26.45;91970.66;2058098;69;20430;-75
2023/04/24 13:26:57;;;;;;;;;;;;;;;18.17;26.38;91968.63;2057929;69;20046;-76
2023/04/24 13:29:22;;;;;;;;;;;;;;;19.46;25.83;91975.34;2057967;69;20057;-77
2023/04/24 13:31:50;;;;;;;;;;;;;;;20.16;25.41;91982.13;2057913;69;20058;-77
2023/04/24 13:34:16;;;;;;;;;;;;;;;17.23;28.24;91986.41;2049027;69;20053;-77
2023/04/24 13:36:41;;;;;;;;;;;;;;;18.38;28.38;91981.19;2058748;69;20076;-78
2023/04/24 13:39:07;;;;;;;;;;;;;;;19.06;27.90;92001.06;2058568;69;20501;-78
2023/04/24 13:41:32;;;;;;;;;;;;;;;17.59;29.23;92011.41;2058149;69;20052;-78
2023/04/24 13:43:58;;;;;;;;;;;;;;;17.71;30.13;92006.03;2058165;69;20430;-78
2023/04/24 13:46:23;;;;;;;;;;;;;;;24.81;22.47;92001.97;2058972;69;20108;-78